AL36 weather

The Huntsville Hospital Heliport
Huntsville, Alabama, United States

Public forecast

Using degrees Fahrenheit for public forecast. Weather courtesy of forecast.io.

Closest aviation weather report (METAR) to The Huntsville Hospital Heliport

Closest report is Redstone Army Air Field, 5.7 nm (10.6 km) WSW. Retrieved 2019/10/15 00:58 UTC (14 minutes ago):

KHUA 150058Z AUTO 00000KT 10SM BKN046 OVC260 17/12 A3008 RMK AO2 SLP187 T01710117

Closest aviation forecast (TAF) to The Huntsville Hospital Heliport

Closest forecast is Huntsville International Carl T Jones Field, 10.8 nm (20.1 km) WSW. Retrieved 2019-10-15 00:22 UTC (50 minutes ago):

TAF KHSV 142320Z 1500/1524 VRB02KT P6SM BKN050 OVC200 FM151500 15007KT P6SM SCT025 BKN035 FM151900 15007KT 5SM -RA BKN015 OVC025